Time;durP1;ratioP1;P1;durP2;ratioP2;P2;SDS_P1;SDS_P2;PMS_P1;PMS_P2;Temp;Humidity;BMP_temperature;BMP_pressure;BME280_temperature;BME280_humidity;BME280_pressure;Samples;Min_cycle;Max_cycle;Signal;HPM_P1;HPM_P2
2022/05/25 00:00:30;;;;;;;4.95;2.65;;;11.30;99.90;;;;;;4211999;28;20512;-82
2022/05/25 00:02:31;;;;;;;4.40;2.92;;;10.90;99.90;;;;;;4230566;28;20120;-82
2022/05/25 00:04:32;;;;;;;6.45;2.85;;;10.90;99.90;;;;;;4212726;28;20052;-82
2022/05/25 00:06:33;;;;;;;6.88;3.03;;;10.90;99.90;;;;;;4230621;28;20476;-82
2022/05/25 00:08:34;;;;;;;4.90;2.75;;;10.80;99.90;;;;;;4246877;28;20039;-82
2022/05/25 00:10:35;;;;;;;3.60;2.35;;;10.90;99.90;;;;;;4247420;28;20100;-82
2022/05/25 00:12:36;;;;;;;5.00;2.70;;;10.80;99.90;;;;;;4247703;28;20538;-82
2022/05/25 00:14:36;;;;;;;6.68;2.80;;;10.80;99.90;;;;;;4247614;28;20043;-81
2022/05/25 00:16:38;;;;;;;5.03;3.22;;;10.80;99.90;;;;;;4247008;28;20039;-81
2022/05/25 00:19:59;;;;;;;6.68;3.13;;;11.30;99.90;;;;;;4247333;28;20071;-81
2022/05/25 00:21:03;;;;;;;4.35;2.72;;;11.20;99.90;;;;;;4246249;28;20059;-81
2022/05/25 00:23:04;;;;;;;4.22;2.63;;;11.30;99.90;;;;;;4228853;28;20063;-81
2022/05/25 00:25:07;;;;;;;3.83;2.75;;;10.80;99.90;;;;;;4247230;28;20043;-81
2022/05/25 00:27:07;;;;;;;4.22;2.75;;;10.80;99.90;;;;;;4247086;28;20081;-81
2022/05/25 00:29:08;;;;;;;4.50;2.67;;;10.80;99.90;;;;;;4246714;28;20039;-81
2022/05/25 00:31:09;;;;;;;4.32;2.67;;;10.70;99.90;;;;;;4246247;28;20031;-81
2022/05/25 00:33:11;;;;;;;4.82;3.05;;;10.70;99.90;;;;;;4246885;28;20376;-81
2022/05/25 00:35:16;;;;;;;6.70;3.22;;;10.70;99.90;;;;;;4246978;28;20035;-82
2022/05/25 00:37:17;;;;;;;4.55;2.60;;;10.70;99.90;;;;;;4247283;28;20051;-81
2022/05/25 00:39:18;;;;;;;5.00;3.00;;;10.70;99.90;;;;;;4228943;28;20067;-81
2022/05/25 00:41:23;;;;;;;5.43;3.58;;;11.30;99.90;;;;;;4248780;28;20501;-82
2022/05/25 00:43:24;;;;;;;5.90;3.10;;;10.60;99.90;;;;;;4246878;28;20050;-82
2022/05/25 00:45:25;;;;;;;8.10;3.45;;;10.60;99.90;;;;;;4247269;28;20099;-82
2022/05/25 00:47:27;;;;;;;7.75;3.03;;;11.00;99.90;;;;;;4247058;27;20039;-82
2022/05/25 00:49:31;;;;;;;7.65;3.40;;;10.90;99.90;;;;;;4247132;28;20039;-82
2022/05/25 00:51:41;;;;;;;5.13;2.97;;;10.50;99.90;;;;;;4247382;28;20057;-82
2022/05/25 00:53:56;;;;;;;5.80;3.42;;;10.50;99.90;;;;;;4247120;28;20047;-82
2022/05/25 00:55:56;;;;;;;7.63;3.22;;;10.50;99.90;;;;;;4228967;28;20502;-82
2022/05/25 00:57:59;;;;;;;4.85;2.85;;;10.80;99.90;;;;;;4246988;28;20039;-82
2022/05/25 01:00:12;;;;;;;8.30;3.92;;;10.40;99.90;;;;;;4247225;28;20534;-82
2022/05/25 01:02:13;;;;;;;7.95;3.70;;;10.40;99.90;;;;;;4246338;28;20039;-82
2022/05/25 01:04:15;;;;;;;6.05;3.42;;;10.80;99.90;;;;;;4248753;27;20067;-82
2022/05/25 01:06:31;;;;;;;8.82;3.85;;;10.50;99.90;;;;;;4215125;28;20503;-82
2022/05/25 01:09:08;;;;;;;8.50;3.72;;;10.50;99.90;;;;;;4249893;27;20497;-82
2022/05/25 01:11:33;;;;;;;6.95;3.78;;;10.40;99.90;;;;;;4250045;27;20043;-82
2022/05/25 01:13:40;;;;;;;6.82;4.03;;;10.40;99.90;;;;;;4231299;28;20055;-82
2022/05/25 01:15:46;;;;;;;7.18;4.38;;;10.40;99.90;;;;;;4249977;27;20073;-82
2022/05/25 01:18:10;;;;;;;11.95;4.85;;;10.30;99.90;;;;;;4249977;27;20043;-82
2022/05/25 01:20:23;;;;;;;8.70;3.88;;;10.30;99.90;;;;;;4249913;27;20082;-82
2022/05/25 01:22:41;;;;;;;12.57;5.50;;;10.60;99.90;;;;;;4249749;27;20134;-82
2022/05/25 01:25:06;;;;;;;6.65;4.13;;;10.30;99.90;;;;;;4249896;27;20047;-82
2022/05/25 01:27:29;;;;;;;7.35;4.30;;;10.30;99.90;;;;;;4249065;27;20049;-82
2022/05/25 01:29:29;;;;;;;8.02;4.22;;;10.30;99.90;;;;;;4249899;27;20507;-82
2022/05/25 01:31:53;;;;;;;7.53;4.40;;;10.30;99.90;;;;;;4249787;27;20043;-82
2022/05/25 01:34:05;;;;;;;9.10;4.45;;;10.30;99.90;;;;;;4231306;28;20589;-82
2022/05/25 01:36:38;;;;;;;6.55;4.50;;;10.30;99.90;;;;;;4222726;28;20048;-82
2022/05/25 01:39:11;;;;;;;7.45;4.35;;;10.40;99.90;;;;;;4217340;28;20077;-82
2022/05/25 01:41:20;;;;;;;9.95;4.38;;;10.20;99.90;;;;;;4210030;28;20432;-82
2022/05/25 01:43:27;;;;;;;8.40;4.03;;;10.20;99.90;;;;;;4214672;28;20103;-82
2022/05/25 01:45:32;;;;;;;7.88;4.45;;;10.20;99.90;;;;;;4232502;28;20066;-82
2022/05/25 01:47:34;;;;;;;8.30;4.47;;;10.20;99.90;;;;;;4232345;28;20031;-82
2022/05/25 01:49:45;;;;;;;7.97;4.22;;;10.30;99.90;;;;;;4232574;28;20110;-82
2022/05/25 01:52:00;;;;;;;9.43;4.63;;;10.70;99.90;;;;;;4214298;28;20058;-82
2022/05/25 01:54:04;;;;;;;6.95;4.68;;;10.30;99.90;;;;;;4213915;28;20528;-82
2022/05/25 01:56:08;;;;;;;11.27;4.97;;;10.20;99.90;;;;;;4232283;28;20121;-82
2022/05/25 01:58:13;;;;;;;8.00;4.82;;;10.00;99.90;;;;;;4214405;28;20036;-82
2022/05/25 02:00:43;;;;;;;10.77;5.38;;;10.40;99.90;;;;;;4232331;28;20495;-82
2022/05/25 02:05:04;;;;;;;;;;;10.40;99.90;;;;;;4232719;28;20044;-82
2022/05/25 02:07:46;;;;;;;8.65;5.28;;;10.10;99.90;;;;;;4233847;27;20014;-82
2022/05/25 02:09:56;;;;;;;8.13;4.55;;;10.10;99.90;;;;;;4249204;27;20179;-82
2022/05/25 02:12:14;;;;;;;11.27;5.35;;;10.30;99.90;;;;;;4249217;27;20043;-82
2022/05/25 02:14:20;;;;;;;11.63;5.68;;;10.10;99.90;;;;;;4249251;27;20039;-82
2022/05/25 02:16:41;;;;;;;10.95;5.47;;;10.10;99.90;;;;;;4248499;27;20043;-82
2022/05/25 02:18:55;;;;;;;9.98;6.07;;;10.10;99.90;;;;;;4248680;27;20043;-82
2022/05/25 02:21:17;;;;;;;9.00;5.90;;;10.40;99.90;;;;;;4248705;27;20525;-82
2022/05/25 02:23:21;;;;;;;10.20;6.18;;;10.00;99.90;;;;;;4248651;27;20031;-82
2022/05/25 02:25:58;;;;;;;10.05;6.10;;;10.10;99.90;;;;;;4249182;27;20055;-82
2022/05/25 02:28:12;;;;;;;12.13;6.18;;;10.00;99.90;;;;;;4244508;27;20075;-82
2022/05/25 02:30:17;;;;;;;11.82;6.50;;;10.10;99.90;;;;;;4249930;27;20411;-82
2022/05/25 02:32:35;;;;;;;13.27;6.30;;;10.60;99.90;;;;;;4250472;27;20039;-82
2022/05/25 02:34:38;;;;;;;16.70;6.97;;;10.20;99.90;;;;;;4232330;28;20063;-82
2022/05/25 02:36:40;;;;;;;9.80;6.22;;;10.00;99.90;;;;;;4249422;27;20058;-82
2022/05/25 02:38:43;;;;;;;11.10;7.20;;;10.10;99.90;;;;;;4249117;27;20479;-82
2022/05/25 02:40:43;;;;;;;11.82;6.85;;;10.50;99.90;;;;;;4248405;27;20523;-82
2022/05/25 02:42:44;;;;;;;11.88;7.03;;;9.90;99.90;;;;;;4248897;27;20462;-82
2022/05/25 02:44:45;;;;;;;12.32;7.03;;;10.20;99.90;;;;;;4248808;27;20058;-82
2022/05/25 02:46:46;;;;;;;14.88;7.40;;;10.10;99.90;;;;;;4248541;27;20049;-83
2022/05/25 02:48:47;;;;;;;16.25;7.00;;;10.10;99.90;;;;;;4247769;27;20100;-82
2022/05/25 02:50:48;;;;;;;13.40;7.10;;;10.00;99.90;;;;;;4248429;27;20489;-82
2022/05/25 02:52:48;;;;;;;13.18;7.10;;;10.10;99.90;;;;;;4248190;27;20043;-82
2022/05/25 02:54:50;;;;;;;13.55;7.05;;;10.70;99.90;;;;;;4248525;27;20481;-82
2022/05/25 02:56:51;;;;;;;14.13;7.28;;;10.10;99.90;;;;;;4229888;28;20123;-82
2022/05/25 02:58:51;;;;;;;18.38;7.85;;;10.20;99.90;;;;;;4248257;27;20444;-82
2022/05/25 03:00:52;;;;;;;12.43;7.00;;;10.10;99.90;;;;;;4229732;28;20049;-82
2022/05/25 03:02:56;;;;;;;11.80;6.85;;;10.10;99.90;;;;;;4230093;28;20036;-82
2022/05/25 03:04:57;;;;;;;17.92;7.45;;;10.10;99.90;;;;;;4212883;28;20040;-82
2022/05/25 03:06:57;;;;;;;13.60;7.32;;;10.10;99.90;;;;;;4248249;27;20140;-82
2022/05/25 03:08:58;;;;;;;13.70;7.78;;;10.10;99.90;;;;;;4248226;27;20047;-82
2022/05/25 03:10:59;;;;;;;14.77;7.60;;;10.10;99.90;;;;;;4229609;28;20118;-82
2022/05/25 03:12:59;;;;;;;19.70;7.70;;;10.10;99.90;;;;;;4248063;27;20042;-82
2022/05/25 03:15:01;;;;;;;12.73;7.82;;;10.10;99.90;;;;;;4247919;27;20087;-82
2022/05/25 03:17:09;;;;;;;13.32;7.07;;;10.00;99.90;;;;;;4247870;27;20461;-82
2022/05/25 03:19:09;;;;;;;12.85;7.63;;;10.00;99.90;;;;;;4247920;27;20046;-81
2022/05/25 03:21:10;;;;;;;14.02;6.90;;;10.00;99.90;;;;;;4247640;27;20087;-82
2022/05/25 03:23:12;;;;;;;13.10;7.57;;;10.20;99.90;;;;;;4247623;27;20027;-82
2022/05/25 03:25:13;;;;;;;13.63;7.20;;;10.00;99.90;;;;;;4247598;27;20047;-82
2022/05/25 03:27:14;;;;;;;17.17;7.90;;;10.00;99.90;;;;;;4246569;27;20035;-82
2022/05/25 03:29:17;;;;;;;13.05;8.00;;;10.40;99.90;;;;;;4247883;27;20078;-82
2022/05/25 03:31:18;;;;;;;12.57;8.00;;;10.10;99.90;;;;;;4247845;27;20475;-81
2022/05/25 03:33:18;;;;;;;10.95;7.15;;;10.30;99.90;;;;;;4249412;27;20104;-82
2022/05/25 03:35:19;;;;;;;16.50;8.57;;;10.10;99.90;;;;;;4245520;27;20039;-82
2022/05/25 03:37:20;;;;;;;15.82;7.28;;;9.90;99.90;;;;;;4212878;28;20502;-82
2022/05/25 03:39:26;;;;;;;13.80;7.47;;;9.90;99.90;;;;;;4230817;28;20039;-82
2022/05/25 03:41:26;;;;;;;14.52;7.43;;;10.30;99.90;;;;;;4230638;28;20126;-82
2022/05/25 03:43:33;;;;;;;14.55;6.88;;;9.90;99.90;;;;;;4230910;28;20503;-82
2022/05/25 03:45:34;;;;;;;13.38;7.43;;;10.00;99.90;;;;;;4230875;28;20105;-82
2022/05/25 03:47:34;;;;;;;15.27;8.23;;;9.90;99.90;;;;;;4230056;28;20161;-82
2022/05/25 03:49:35;;;;;;;13.07;7.13;;;9.90;99.90;;;;;;4230711;28;20043;-82
2022/05/25 03:51:36;;;;;;;15.32;8.23;;;9.90;99.90;;;;;;4230706;28;20043;-82
2022/05/25 03:53:37;;;;;;;14.00;7.00;;;9.90;99.90;;;;;;4230420;28;20039;-82
2022/05/25 03:55:38;;;;;;;11.80;7.35;;;9.90;99.90;;;;;;4212710;28;20420;-82
2022/05/25 03:57:38;;;;;;;13.30;7.68;;;9.40;99.90;;;;;;4230336;28;20054;-82
2022/05/25 03:59:39;;;;;;;14.02;7.60;;;9.90;99.90;;;;;;4229929;28;20437;-82
2022/05/25 04:01:40;;;;;;;13.38;7.90;;;10.00;99.90;;;;;;4230520;28;20043;-83
2022/05/25 04:03:40;;;;;;;13.52;8.20;;;9.90;99.90;;;;;;4230608;28;20044;-83
2022/05/25 04:05:42;;;;;;;16.08;8.05;;;10.00;99.90;;;;;;4230484;28;20040;-83
2022/05/25 04:07:45;;;;;;;15.18;7.20;;;10.40;99.90;;;;;;4230253;28;20035;-82
2022/05/25 04:09:46;;;;;;;15.40;7.90;;;10.30;99.90;;;;;;4212259;28;20496;-82
2022/05/25 04:11:48;;;;;;;14.93;7.72;;;9.90;99.90;;;;;;4230120;28;20122;-83
2022/05/25 04:13:49;;;;;;;13.98;7.45;;;9.90;99.90;;;;;;4234874;28;20479;-83
2022/05/25 04:15:49;;;;;;;13.55;7.85;;;9.90;99.90;;;;;;4228176;28;20051;-83
2022/05/25 04:17:50;;;;;;;13.00;7.57;;;10.10;99.90;;;;;;4229150;28;20123;-83
2022/05/25 04:19:51;;;;;;;14.43;7.57;;;10.60;99.90;;;;;;4229282;28;20040;-82
2022/05/25 04:21:53;;;;;;;15.95;7.45;;;10.40;99.90;;;;;;4246669;28;20047;-84
2022/05/25 04:23:53;;;;;;;13.85;7.93;;;9.90;99.90;;;;;;4247169;28;20122;-83
2022/05/25 04:25:56;;;;;;;13.90;8.25;;;10.00;99.90;;;;;;4229105;28;20044;-84
2022/05/25 04:27:58;;;;;;;15.93;7.75;;;10.30;99.90;;;;;;4247300;28;20050;-83
2022/05/25 04:29:58;;;;;;;16.27;8.10;;;10.00;99.90;;;;;;4247476;28;20172;-83
2022/05/25 04:31:59;;;;;;;14.88;7.78;;;10.00;99.90;;;;;;4246443;28;20064;-83
2022/05/25 04:34:00;;;;;;;13.60;7.60;;;10.10;99.90;;;;;;4230873;28;20048;-83
2022/05/25 04:36:01;;;;;;;13.20;7.57;;;10.10;99.90;;;;;;4246542;28;20126;-84
2022/05/25 04:38:03;;;;;;;13.65;7.55;;;10.10;99.90;;;;;;4228203;28;20522;-83
2022/05/25 04:40:05;;;;;;;12.32;7.05;;;10.10;99.90;;;;;;4249824;27;20544;-83
2022/05/25 04:42:05;;;;;;;14.00;7.53;;;10.20;99.90;;;;;;4249993;27;20069;-83
2022/05/25 04:44:06;;;;;;;13.13;7.13;;;10.20;99.90;;;;;;4249278;27;20074;-83
2022/05/25 04:46:09;;;;;;;13.45;6.68;;;10.50;99.90;;;;;;4232104;28;20519;-83
2022/05/25 04:48:13;;;;;;;14.07;7.18;;;10.30;99.90;;;;;;4250346;27;20031;-83
2022/05/25 04:50:17;;;;;;;15.90;7.32;;;10.70;99.90;;;;;;4250360;27;20054;-83
2022/05/25 04:52:18;;;;;;;14.75;6.43;;;10.50;99.90;;;;;;4250356;27;20049;-83
2022/05/25 04:54:19;;;;;;;12.57;7.05;;;10.30;99.90;;;;;;4250483;27;20441;-83
2022/05/25 04:58:42;;;;;;;12.48;6.75;;;10.40;99.90;;;;;;4249799;27;20046;-83
2022/05/25 05:00:43;;;;;;;11.40;6.32;;;10.50;99.90;;;;;;4250239;27;20043;-83
2022/05/25 05:02:44;;;;;;;13.52;6.72;;;10.50;99.90;;;;;;4250151;27;20054;-83
2022/05/25 05:04:45;;;;;;;11.15;6.30;;;10.50;99.90;;;;;;4250146;27;20118;-83
2022/05/25 05:06:49;;;;;;;12.73;6.95;;;10.80;99.90;;;;;;4249226;27;20117;-83
2022/05/25 05:08:50;;;;;;;13.70;6.75;;;10.60;99.90;;;;;;4249489;27;20028;-83
2022/05/25 05:10:52;;;;;;;11.25;6.28;;;10.80;99.90;;;;;;4249872;27;20479;-83
2022/05/25 05:12:52;;;;;;;13.68;7.15;;;10.70;99.90;;;;;;4250027;27;20095;-83
2022/05/25 05:14:53;;;;;;;10.55;6.25;;;10.80;99.90;;;;;;4231692;28;20438;-83
2022/05/25 05:16:56;;;;;;;10.75;5.97;;;11.00;99.90;;;;;;4249371;27;20416;-83
2022/05/25 05:18:56;;;;;;;12.55;6.05;;;10.90;99.90;;;;;;4233002;28;20053;-83
2022/05/25 05:20:57;;;;;;;14.52;6.30;;;11.30;99.90;;;;;;4197522;28;20079;-83
2022/05/25 05:22:58;;;;;;;13.95;6.20;;;11.00;99.90;;;;;;4213557;28;20036;-83
2022/05/25 05:24:59;;;;;;;9.60;6.10;;;11.00;99.90;;;;;;4216186;28;20040;-83
2022/05/25 05:27:00;;;;;;;13.38;6.22;;;11.10;99.90;;;;;;4217364;28;20109;-83
2022/05/25 05:29:01;;;;;;;12.13;6.57;;;11.20;99.90;;;;;;4232807;28;20035;-83
2022/05/25 05:31:04;;;;;;;12.85;7.20;;;11.10;99.90;;;;;;4231584;28;20122;-82
2022/05/25 05:33:05;;;;;;;12.80;6.18;;;11.50;99.90;;;;;;4231209;27;20155;-83
2022/05/25 05:35:06;;;;;;;9.75;5.63;;;11.40;99.90;;;;;;4230909;28;20504;-83
2022/05/25 05:37:21;;;;;;;11.65;5.95;;;11.40;99.90;;;;;;4215429;28;20044;-83
2022/05/25 05:39:25;;;;;;;9.18;5.78;;;11.50;99.90;;;;;;4223865;28;20540;-83
2022/05/25 05:41:41;;;;;;;11.23;6.43;;;11.50;99.90;;;;;;4232723;28;20055;-82
2022/05/25 05:43:42;;;;;;;12.38;6.68;;;11.60;99.90;;;;;;4227048;28;20040;-82
2022/05/25 05:45:44;;;;;;;12.68;6.03;;;11.70;99.90;;;;;;4232228;28;20062;-82
2022/05/25 05:47:55;;;;;;;10.35;5.60;;;11.70;99.90;;;;;;4232284;28;20040;-82
2022/05/25 05:49:56;;;;;;;8.98;5.13;;;11.70;99.90;;;;;;4228837;28;20051;-83
2022/05/25 05:51:57;;;;;;;9.88;5.95;;;11.80;99.90;;;;;;4231745;28;20075;-83
2022/05/25 05:53:58;;;;;;;10.88;5.75;;;11.90;99.90;;;;;;4230650;28;20082;-83
2022/05/25 05:55:59;;;;;;;9.77;5.10;;;11.90;99.90;;;;;;4232005;28;20070;-83
2022/05/25 05:57:59;;;;;;;9.75;5.15;;;12.00;99.90;;;;;;4230728;28;20053;-83
2022/05/25 06:00:00;;;;;;;11.50;6.00;;;12.60;99.90;;;;;;4231677;28;20047;-83
2022/05/25 06:02:01;;;;;;;12.27;5.68;;;12.20;99.90;;;;;;4215320;28;20076;-83
2022/05/25 06:04:02;;;;;;;9.13;5.47;;;12.20;99.90;;;;;;4214862;28;20040;-83
2022/05/25 06:06:04;;;;;;;8.48;4.97;;;12.30;99.90;;;;;;4215307;28;20047;-83
2022/05/25 06:08:10;;;;;;;7.85;5.13;;;12.30;99.90;;;;;;4215614;28;20046;-83
2022/05/25 06:10:11;;;;;;;9.57;5.18;;;12.40;99.90;;;;;;4218573;28;20055;-83
2022/05/25 06:12:14;;;;;;;11.90;4.72;;;12.50;99.90;;;;;;4198666;28;20059;-83
2022/05/25 06:14:15;;;;;;;8.90;4.88;;;12.60;99.90;;;;;;4215367;28;20084;-82
2022/05/25 06:21:08;;;;;;;9.23;4.90;;;12.80;99.90;;;;;;4220169;28;20131;-82
2022/05/25 06:23:09;;;;;;;8.82;5.07;;;12.90;99.90;;;;;;4231565;28;20122;-82
2022/05/25 06:25:09;;;;;;;8.75;4.30;;;13.10;99.90;;;;;;4239158;27;20392;-82
2022/05/25 06:27:14;;;;;;;9.90;4.70;;;13.10;99.90;;;;;;4230320;28;20047;-82
2022/05/25 06:29:17;;;;;;;8.77;4.57;;;13.20;99.90;;;;;;4246238;27;20055;-82
2022/05/25 06:31:19;;;;;;;12.50;4.45;;;13.20;99.90;;;;;;4247915;27;20039;-82
2022/05/25 06:33:20;;;;;;;6.93;4.30;;;13.30;99.90;;;;;;4213016;28;20097;-82
2022/05/25 06:35:21;;;;;;;11.98;5.00;;;13.40;99.90;;;;;;4247965;27;20035;-82
2022/05/25 06:37:24;;;;;;;8.77;3.85;;;13.40;99.90;;;;;;4225426;28;20043;-83
2022/05/25 06:39:25;;;;;;;10.00;4.57;;;13.50;99.90;;;;;;4235115;27;20044;-82
2022/05/25 06:41:28;;;;;;;7.47;4.70;;;13.60;99.90;;;;;;4234907;27;20044;-82
2022/05/25 06:43:28;;;;;;;9.80;4.30;;;13.70;99.90;;;;;;4242682;27;20047;-82
2022/05/25 06:45:30;;;;;;;6.78;3.90;;;13.80;99.90;;;;;;4234703;27;20448;-82
2022/05/25 06:47:32;;;;;;;7.03;4.43;;;13.80;99.90;;;;;;4234908;27;20074;-82
2022/05/25 06:49:33;;;;;;;7.15;3.67;;;13.90;99.90;;;;;;4235113;27;20114;-83
2022/05/25 06:51:36;;;;;;;8.18;3.25;;;13.80;99.90;;;;;;4243659;27;20035;-83
2022/05/25 06:53:37;;;;;;;6.30;3.08;;;14.00;99.90;;;;;;4224743;28;20050;-82
2022/05/25 06:55:37;;;;;;;5.47;3.38;;;14.10;99.90;;;;;;4225179;28;20036;-82
2022/05/25 06:57:40;;;;;;;5.18;3.00;;;14.20;99.90;;;;;;4245259;27;20037;-82
2022/05/25 06:59:41;;;;;;;6.15;2.72;;;14.30;99.90;;;;;;4245427;27;20146;-82
2022/05/25 07:01:42;;;;;;;6.93;3.08;;;14.40;99.90;;;;;;4238203;27;20126;-83
2022/05/25 07:03:44;;;;;;;6.55;2.80;;;14.40;99.90;;;;;;4246686;27;20079;-83
2022/05/25 07:05:45;;;;;;;6.85;2.95;;;14.20;99.90;;;;;;4239633;27;20049;-83
2022/05/25 07:07:45;;;;;;;8.00;2.88;;;14.50;99.90;;;;;;4236640;27;20079;-83
2022/05/25 07:09:46;;;;;;;7.00;3.70;;;14.60;99.90;;;;;;4238303;27;20039;-83
2022/05/25 07:11:51;;;;;;;10.30;2.85;;;14.60;99.90;;;;;;4245683;27;20046;-83
2022/05/25 07:13:52;;;;;;;6.28;2.60;;;14.70;99.90;;;;;;4202580;28;20083;-83
2022/05/25 07:15:57;;;;;;;11.98;2.88;;;14.80;99.90;;;;;;4239139;27;20040;-83
2022/05/25 07:17:58;;;;;;;9.95;3.00;;;;;;;;;;4251638;27;20043;-82
2022/05/25 07:19:59;;;;;;;3.47;2.50;;;;;;;;;;4236759;27;20043;-83
2022/05/25 07:22:00;;;;;;;7.80;3.17;;;;;;;;;;4223670;28;20388;-82
2022/05/25 07:24:02;;;;;;;7.30;3.25;;;;;;;;;;4229069;28;20059;-82
2022/05/25 07:26:03;;;;;;;4.07;2.78;;;;;;;;;;4231168;27;20040;-82
2022/05/25 07:28:05;;;;;;;4.65;2.42;;;;;;;;;;4241582;27;20509;-82
2022/05/25 07:30:07;;;;;;;7.53;3.10;;;;;;;;;;4241942;27;20152;-82
2022/05/25 07:32:09;;;;;;;5.07;2.70;;;;;;;;;;4234411;27;20100;-83
2022/05/25 07:34:13;;;;;;;6.05;3.05;;;;;;;;;;4223847;28;20048;-82
2022/05/25 07:36:14;;;;;;;4.60;2.60;;;;;;;;;;4242264;27;20100;-82
2022/05/25 07:38:16;;;;;;;4.57;2.75;;;;;;;;;;4234770;27;20035;-82
2022/05/25 07:40:19;;;;;;;5.88;2.97;;;;;;;;;;4223580;28;20129;-82
2022/05/25 07:42:22;;;;;;;7.05;3.00;;;;;;;;;;4233796;27;20054;-82
2022/05/25 07:44:25;;;;;;;4.55;2.65;;;;;;;;;;4233842;27;20092;-82
2022/05/25 07:46:27;;;;;;;4.63;2.47;;;;;;;;;;4233915;28;20096;-82
2022/05/25 07:48:28;;;;;;;4.20;2.90;;;;;;;;;;4233004;27;20062;-82
2022/05/25 07:50:29;;;;;;;4.50;2.92;;;;;;;;;;4233809;28;20075;-82
2022/05/25 07:52:33;;;;;;;3.33;2.22;;;;;;;;;;4233863;28;20172;-82
2022/05/25 07:54:34;;;;;;;5.97;2.63;;;;;;;;;;4215852;28;20097;-82
2022/05/25 07:56:36;;;;;;;3.65;2.10;;;;;;;;;;4233910;28;20048;-82
2022/05/25 07:58:37;;;;;;;7.50;2.47;;;;;;;;;;4233220;28;20376;-82
2022/05/25 08:00:39;;;;;;;6.72;2.50;;;;;;;;;;4243224;28;20047;-83
2022/05/25 08:07:22;;;;;;;3.78;2.05;;;;;;;;;;4242396;28;20051;-83
2022/05/25 08:09:23;;;;;;;3.95;2.30;;;;;;;;;;4234681;28;20187;-83
2022/05/25 08:11:25;;;;;;;5.82;2.30;;;;;;;;;;4215214;28;20400;-83
2022/05/25 08:13:26;;;;;;;4.63;2.08;;;;;;;;;;4234394;27;20039;-83
2022/05/25 08:15:28;;;;;;;7.00;2.50;;;;;;;;;;4237421;27;20047;-83
2022/05/25 08:17:29;;;;;;;5.55;2.05;;;;;;;;;;4216467;28;20047;-83
2022/05/25 08:19:30;;;;;;;4.47;2.35;;;;;;;;;;4237574;27;20043;-83
2022/05/25 08:21:31;;;;;;;5.78;2.50;;;;;;;;;;4236965;27;20135;-84
2022/05/25 08:23:33;;;;;;;7.38;2.65;;;;;;;;;;4245826;27;20381;-84
2022/05/25 08:25:34;;;;;;;4.38;2.20;;;;;;;;;;4227939;28;20191;-83
2022/05/25 08:27:41;;;;;;;2.58;1.90;;;;;;;;;;4219181;28;20093;-83
2022/05/25 08:29:42;;;;;;;6.75;2.85;;;;;;;;;;4237268;27;20045;-83
2022/05/25 08:31:44;;;;;;;5.30;3.13;;;;;;;;;;4237217;27;20103;-83
2022/05/25 08:33:45;;;;;;;6.32;2.53;;;;;;;;;;4237228;27;20073;-83
2022/05/25 08:35:46;;;;;;;3.33;2.38;;;;;;;;;;4236721;27;20088;-83
2022/05/25 08:37:50;;;;;;;3.70;1.90;;;;;;;;;;4237413;27;20070;-82
2022/05/25 08:39:51;;;;;;;5.05;2.70;;;;;;;;;;4249719;27;20047;-83
2022/05/25 08:41:54;;;;;;;3.10;1.92;;;;;;;;;;4232265;28;20039;-83
2022/05/25 08:43:55;;;;;;;4.93;2.38;;;;;;;;;;4248852;27;20047;-83
2022/05/25 08:46:02;;;;;;;6.03;2.25;;;15.00;99.90;;;;;;4249059;27;20035;-83
2022/05/25 08:48:04;;;;;;;7.18;2.53;;;17.50;95.30;;;;;;4249324;27;20399;-83
2022/05/25 08:50:06;;;;;;;3.10;2.00;;;17.40;94.80;;;;;;4250047;27;20039;-83
2022/05/25 08:52:23;;;;;;;3.67;2.20;;;17.40;93.90;;;;;;4250311;27;20119;-83
2022/05/25 08:54:26;;;;;;;3.45;2.05;;;17.40;93.40;;;;;;4231978;28;20090;-83
2022/05/25 08:56:57;;;;;;;2.63;1.90;;;17.20;93.50;;;;;;4249678;27;20100;-83
2022/05/25 08:59:08;;;;;;;3.53;2.08;;;17.60;92.60;;;;;;4249961;27;20050;-83
2022/05/25 09:01:12;;;;;;;2.00;1.73;;;17.70;93.40;;;;;;4250210;27;20053;-83
2022/05/25 09:03:27;;;;;;;3.47;1.52;;;17.90;93.00;;;;;;4249968;27;20055;-83
2022/05/25 09:05:40;;;;;;;4.78;2.58;;;17.90;91.20;;;;;;4249879;27;20054;-83
2022/05/25 09:07:53;;;;;;;3.10;1.85;;;17.90;91.60;;;;;;4249334;27;20090;-83
2022/05/25 09:09:54;;;;;;;4.47;1.65;;;17.90;91.10;;;;;;4250185;27;20093;-83
2022/05/25 09:12:05;;;;;;;4.05;2.20;;;17.80;91.10;;;;;;4250618;27;20039;-81
2022/05/25 09:14:17;;;;;;;3.28;1.67;;;17.80;91.30;;;;;;4250109;27;20074;-82
2022/05/25 09:16:22;;;;;;;3.20;2.20;;;17.70;90.90;;;;;;4249554;27;20395;-82
2022/05/25 09:18:29;;;;;;;6.55;2.13;;;17.60;91.10;;;;;;4231878;28;20131;-82
2022/05/25 09:20:38;;;;;;;5.63;1.95;;;17.60;91.10;;;;;;4249630;27;20108;-82
2022/05/25 09:22:41;;;;;;;2.42;1.80;;;17.70;91.10;;;;;;4250539;27;20093;-83
2022/05/25 09:24:43;;;;;;;3.50;1.60;;;17.70;91.30;;;;;;4250358;27;20180;-82
2022/05/25 09:26:43;;;;;;;3.97;1.90;;;17.80;90.70;;;;;;4251207;27;20479;-83
2022/05/25 09:28:49;;;;;;;20.02;3.17;;;18.00;90.60;;;;;;4249114;27;20035;-83
2022/05/25 09:30:53;;;;;;;5.78;1.50;;;18.10;90.20;;;;;;4249686;27;20483;-83
2022/05/25 09:33:02;;;;;;;5.07;1.70;;;18.20;90.40;;;;;;4249750;27;20095;-82
2022/05/25 09:35:09;;;;;;;4.72;1.90;;;18.30;90.40;;;;;;4231150;28;20509;-83
2022/05/25 09:37:21;;;;;;;7.28;1.75;;;18.50;89.10;;;;;;4231511;28;20123;-83
2022/05/25 09:39:30;;;;;;;3.00;1.55;;;18.60;90.00;;;;;;4249663;27;20555;-83
2022/05/25 09:41:32;;;;;;;1.90;1.38;;;18.70;88.60;;;;;;4249110;27;20050;-83
2022/05/25 09:43:34;;;;;;;2.63;1.63;;;19.00;89.80;;;;;;4249520;27;20050;-83
2022/05/25 09:45:44;;;;;;;3.97;2.13;;;19.00;85.20;;;;;;4249265;27;20042;-83
2022/05/25 09:47:48;;;;;;;2.53;1.70;;;18.90;86.40;;;;;;4249072;27;20047;-83
2022/05/25 09:49:51;;;;;;;3.03;1.50;;;18.70;87.70;;;;;;4249435;27;20065;-83
2022/05/25 09:51:54;;;;;;;4.60;2.15;;;18.70;89.10;;;;;;4249333;27;20535;-83
2022/05/25 09:54:00;;;;;;;5.78;1.95;;;18.50;88.30;;;;;;4248767;27;20069;-83
2022/05/25 09:56:09;;;;;;;2.95;1.30;;;18.30;87.50;;;;;;4249329;27;20189;-84
2022/05/25 09:58:14;;;;;;;;;;;18.00;86.60;;;;;;4249676;27;20043;-83
2022/05/25 10:00:21;;;;;;;2.90;1.73;;;18.00;85.20;;;;;;4249156;27;20371;-83
2022/05/25 10:02:27;;;;;;;3.15;1.38;;;17.90;87.40;;;;;;4231037;28;20043;-84
2022/05/25 10:04:51;;;;;;;3.13;1.75;;;17.90;87.00;;;;;;4248531;27;20043;-83
2022/05/25 10:06:53;;;;;;;4.90;1.70;;;17.90;85.90;;;;;;4248956;27;20047;-83
2022/05/25 10:09:17;;;;;;;3.72;2.38;;;18.10;84.30;;;;;;4249066;27;20039;-83
2022/05/25 10:11:28;;;;;;;2.15;1.77;;;18.20;84.00;;;;;;4235241;27;20057;-83
2022/05/25 10:13:36;;;;;;;4.57;1.90;;;18.40;84.60;;;;;;4248680;27;20054;-83
2022/05/25 10:15:37;;;;;;;4.13;2.00;;;18.30;84.80;;;;;;4248565;27;20134;-82
2022/05/25 10:17:40;;;;;;;5.20;2.17;;;18.20;84.80;;;;;;4248875;27;20070;-82
2022/05/25 10:19:50;;;;;;;3.55;1.70;;;18.30;85.70;;;;;;4249249;27;20046;-83
2022/05/25 10:21:54;;;;;;;4.55;2.08;;;18.30;85.70;;;;;;4230543;28;20480;-83
2022/05/25 10:23:57;;;;;;;5.18;2.17;;;18.30;85.90;;;;;;4230573;28;20059;-83
2022/05/25 10:26:11;;;;;;;3.25;1.70;;;18.10;86.40;;;;;;4230611;28;20565;-83
2022/05/25 10:28:27;;;;;;;3.65;1.70;;;17.90;84.80;;;;;;4248495;27;20035;-83
2022/05/25 10:37:52;;;;;;;2.78;1.92;;;17.20;86.90;;;;;;4247934;27;20110;-83
2022/05/25 10:39:52;;;;;;;5.95;2.47;;;17.10;88.70;;;;;;4248094;27;20535;-83
2022/05/25 10:41:59;;;;;;;3.83;2.13;;;17.10;88.60;;;;;;4248369;27;20084;-83
2022/05/25 10:44:22;;;;;;;4.10;2.20;;;17.10;88.50;;;;;;4230579;28;20063;-83
2022/05/25 10:46:24;;;;;;;4.03;2.42;;;17.10;87.70;;;;;;4248545;27;20499;-83
2022/05/25 10:48:59;;;;;;;6.10;2.40;;;17.10;88.30;;;;;;4248230;27;20035;-83
2022/05/25 10:51:06;;;;;;;6.55;2.40;;;17.20;87.80;;;;;;4186363;28;20419;-83
2022/05/25 10:53:09;;;;;;;6.28;2.33;;;17.30;89.00;;;;;;4230180;28;20428;-83
2022/05/25 10:55:10;;;;;;;5.82;2.38;;;17.40;89.10;;;;;;4230287;28;20100;-83
2022/05/25 10:57:44;;;;;;;3.22;2.28;;;17.40;89.10;;;;;;4230375;28;20047;-83
2022/05/25 10:59:50;;;;;;;5.95;2.50;;;17.40;87.80;;;;;;4248331;27;20039;-83
2022/05/25 11:02:18;;;;;;;2.15;1.70;;;17.40;88.80;;;;;;4229245;28;20519;-83
2022/05/25 11:04:37;;;;;;;2.83;2.17;;;17.30;88.70;;;;;;4230001;28;20499;-83
2022/05/25 11:07:01;;;;;;;4.60;2.60;;;17.10;88.00;;;;;;4248203;27;20035;-83
2022/05/25 11:09:26;;;;;;;4.35;2.53;;;17.00;89.40;;;;;;4247913;27;20047;-83
2022/05/25 11:12:09;;;;;;;4.80;2.28;;;16.90;89.90;;;;;;4248159;27;20524;-83
2022/05/25 11:14:36;;;;;;;6.18;3.00;;;16.70;91.30;;;;;;4248516;27;20111;-83
2022/05/25 11:17:05;;;;;;;12.38;3.65;;;16.50;93.70;;;;;;4250521;27;20047;-83
2022/05/25 11:19:27;;;;;;;13.02;4.00;;;16.20;95.00;;;;;;4250289;27;20039;-82
2022/05/25 11:21:45;;;;;;;5.97;3.25;;;15.80;96.40;;;;;;4249752;27;20051;-82
2022/05/25 11:24:19;;;;;;;5.60;2.50;;;15.40;97.40;;;;;;4251152;27;20047;-82